Time;durP1;ratioP1;P1;durP2;ratioP2;P2;SDS_P1;SDS_P2;PMS_P1;PMS_P2;Temp;Humidity;BMP_temperature;BMP_pressure;BME280_temperature;BME280_humidity;BME280_pressure;Samples;Min_cycle;Max_cycle;Signal;HPM_P1;HPM_P2
2021/12/21 00:00:21;;;;;;;6.12;2.39;;;;;;;;;;364603;145;857325;-60
2021/12/21 00:01:23;;;;;;;3.52;2.26;;;;;;;;;;361088;146;858379;-60
2021/12/21 00:02:25;;;;;;;3.18;2.05;;;;;;;;;;363026;146;864683;-61
2021/12/21 00:03:26;;;;;;;4.04;2.12;;;;;;;;;;361739;145;857342;-60
2021/12/21 00:04:28;;;;;;;3.61;2.25;;;;;;;;;;362286;146;862268;-60
2021/12/21 00:05:30;;;;;;;4.39;2.65;;;;;;;;;;361022;146;864827;-60
2021/12/21 00:06:31;;;;;;;3.03;2.28;;;;;;;;;;361043;145;857276;-60
2021/12/21 00:07:33;;;;;;;4.40;2.50;;;;;;;;;;363320;145;857190;-60
2021/12/21 00:08:36;;;;;;;3.69;1.95;;;;;;;;;;361043;148;861796;-60
2021/12/21 00:09:37;;;;;;;4.01;2.09;;;;;;;;;;361567;146;858549;-60
2021/12/21 00:10:42;;;;;;;3.91;2.08;;;;;;;;;;361481;146;857336;-60
2021/12/21 00:11:44;;;;;;;3.38;2.12;;;;;;;;;;362763;146;865625;-62
2021/12/21 00:14:11;;;;;;;5.47;2.10;;;;;;;;;;361719;145;857846;-60
2021/12/21 00:15:07;;;;;;;2.92;2.16;;;;;;;;;;361241;146;859597;-62
2021/12/21 00:20:59;;;;;;;1.55;1.43;;;;;;;;;;361376;145;857187;-60
2021/12/21 00:22:02;;;;;;;1.87;1.36;;;;;;;;;;361013;145;857320;-61
2021/12/21 00:23:29;;;;;;;2.44;1.26;;;;;;;;;;361315;146;857162;-60
2021/12/21 00:24:20;;;;;;;2.12;1.27;;;;;;;;;;358965;145;857327;-60
2021/12/21 00:25:18;;;;;;;1.37;1.12;;;;;;;;;;360827;145;857269;-61
2021/12/21 00:26:22;;;;;;;1.86;1.02;;;;;;;;;;363115;146;864901;-61
2021/12/21 00:27:23;;;;;;;1.65;0.97;;;;;;;;;;361726;145;858104;-61
2021/12/21 00:28:35;;;;;;;1.44;0.95;;;;;;;;;;361964;145;857678;-60
2021/12/21 00:29:31;;;;;;;0.78;0.76;;;;;;;;;;362442;146;863023;-60
2021/12/21 00:30:33;;;;;;;1.29;0.96;;;;;;;;;;364961;146;857293;-58
2021/12/21 00:31:35;;;;;;;1.03;0.74;;;;;;;;;;362652;145;865673;-62
2021/12/21 00:32:37;;;;;;;1.10;0.80;;;;;;;;;;361832;146;865440;-60
2021/12/21 00:33:41;;;;;;;1.23;0.91;;;;;;;;;;361547;146;858443;-60
2021/12/21 00:34:42;;;;;;;1.57;0.84;;;;;;;;;;361019;146;865602;-61
2021/12/21 00:35:44;;;;;;;1.15;0.94;;;;;;;;;;364066;145;857221;-60
2021/12/21 00:36:47;;;;;;;1.31;1.13;;;;;;;;;;361127;146;864810;-60
2021/12/21 00:37:49;;;;;;;1.88;1.03;;;;;;;;;;361852;146;857296;-60
2021/12/21 00:38:51;;;;;;;1.20;0.81;;;;;;;;;;363170;145;857415;-60
2021/12/21 00:39:53;;;;;;;2.13;1.15;;;;;;;;;;363999;146;857320;-60
2021/12/21 00:40:54;;;;;;;2.51;1.20;;;;;;;;;;360973;146;857299;-60
2021/12/21 00:41:56;;;;;;;1.34;1.13;;;;;;;;;;361302;145;866536;-60
2021/12/21 00:42:58;;;;;;;1.50;1.05;;;;;;;;;;361846;146;866546;-60
2021/12/21 00:43:59;;;;;;;1.76;1.29;;;;;;;;;;363052;146;858719;-60
2021/12/21 00:45:01;;;;;;;4.27;1.19;;;;;;;;;;363608;145;864735;-60
2021/12/21 00:46:03;;;;;;;2.05;1.15;;;;;;;;;;349713;150;862721;-60
2021/12/21 00:47:04;;;;;;;2.16;1.54;;;;;;;;;;349808;152;859552;-60
2021/12/21 00:48:06;;;;;;;1.58;1.09;;;;;;;;;;345157;152;865568;-60
2021/12/21 00:49:15;;;;;;;2.63;1.44;;;;;;;;;;344312;152;864979;-60
2021/12/21 00:50:17;;;;;;;1.98;1.24;;;;;;;;;;348929;152;858175;-63
2021/12/21 00:51:20;;;;;;;2.31;1.46;;;;;;;;;;347773;152;858081;-60
2021/12/21 00:52:21;;;;;;;3.43;1.63;;;;;;;;;;348237;152;858014;-60
2021/12/21 00:53:23;;;;;;;4.05;1.30;;;;;;;;;;348585;150;858920;-62
2021/12/21 00:54:26;;;;;;;2.20;1.46;;;;;;;;;;346018;155;864450;-61
2021/12/21 00:55:27;;;;;;;2.37;1.32;;;;;;;;;;346542;152;865394;-60
2021/12/21 00:56:29;;;;;;;1.71;1.38;;;;;;;;;;348130;149;859006;-60
2021/12/21 00:57:30;;;;;;;1.64;1.26;;;;;;;;;;346019;152;864820;-61
2021/12/21 00:58:32;;;;;;;3.53;1.57;;;;;;;;;;350695;152;862399;-60
2021/12/21 00:59:34;;;;;;;2.79;1.64;;;;;;;;;;344708;152;859561;-61
2021/12/21 01:00:35;;;;;;;1.82;1.21;;;;;;;;;;339583;154;865053;-60
2021/12/21 01:01:40;;;;;;;4.21;1.37;;;;;;;;;;349416;152;864787;-61
2021/12/21 01:02:41;;;;;;;1.40;1.12;;;;;;;;;;340471;155;866153;-61
2021/12/21 01:03:48;;;;;;;1.69;1.15;;;;;;;;;;344149;152;860294;-60
2021/12/21 01:04:49;;;;;;;1.79;1.38;;;;;;;;;;343415;154;864880;-61
2021/12/21 01:07:03;;;;;;;4.06;1.38;;;;;;;;;;343311;152;862613;-60
2021/12/21 01:08:01;;;;;;;2.21;1.31;;;;;;;;;;342197;154;864679;-60
2021/12/21 01:09:11;;;;;;;1.40;1.22;;;;;;;;;;344715;152;859427;-60
2021/12/21 01:10:46;;;;;;;1.94;1.32;;;;;;;;;;343904;152;864228;-60
2021/12/21 01:11:29;;;;;;;2.50;1.53;;;;;;;;;;345491;154;865427;-60
2021/12/21 01:13:57;;;;;;;4.29;2.53;;;;;;;;;;344068;152;857687;-60
2021/12/21 01:15:19;;;;;;;2.13;1.31;;;;;;;;;;343915;154;859047;-62
2021/12/21 01:16:24;;;;;;;3.82;1.65;;;;;;;;;;343586;155;857661;-62
2021/12/21 01:17:37;;;;;;;3.56;1.39;;;;;;;;;;343441;152;857224;-60
2021/12/21 01:18:39;;;;;;;4.21;1.65;;;;;;;;;;342505;154;857202;-59
2021/12/21 01:19:48;;;;;;;1.24;1.13;;;;;;;;;;343281;154;857300;-61
2021/12/21 01:20:53;;;;;;;2.67;1.61;;;;;;;;;;343395;154;858157;-61
2021/12/21 01:24:39;;;;;;;2.43;1.55;;;;;;;;;;343009;152;866510;-60
2021/12/21 01:25:53;;;;;;;2.67;1.37;;;;;;;;;;343836;154;857636;-60
2021/12/21 01:27:17;;;;;;;2.55;1.54;;;;;;;;;;343539;154;857877;-60
2021/12/21 01:28:23;;;;;;;1.63;1.26;;;;;;;;;;342810;152;859891;-60
2021/12/21 01:31:52;;;;;;;2.39;1.37;;;;;;;;;;344184;152;859400;-60
2021/12/21 01:34:58;;;;;;;2.98;1.33;;;;;;;;;;344761;154;857679;-61
2021/12/21 01:35:06;;;;;;;2.89;1.56;;;;;;;;;;334281;154;864180;-61
2021/12/21 01:36:08;;;;;;;2.18;1.41;;;;;;;;;;344963;152;857749;-60
2021/12/21 01:37:16;;;;;;;2.26;1.41;;;;;;;;;;345277;154;865378;-61
2021/12/21 01:38:27;;;;;;;1.47;1.27;;;;;;;;;;345820;154;868207;-59
2021/12/21 01:40:03;;;;;;;3.47;2.47;;;;;;;;;;341604;152;857249;-61
2021/12/21 01:40:32;;;;;;;2.25;1.27;;;;;;;;;;327221;156;864916;-62
2021/12/21 01:43:55;;;;;;;1.62;1.45;;;;;;;;;;326959;164;864917;-60
2021/12/21 01:49:50;;;;;;;2.46;1.41;;;;;;;;;;361628;145;859790;-61
2021/12/21 01:50:52;;;;;;;1.17;1.07;;;;;;;;;;361387;146;857557;-61
2021/12/21 01:51:54;;;;;;;1.61;1.50;;;;;;;;;;362197;146;863849;-60
2021/12/21 01:52:55;;;;;;;1.77;1.26;;;;;;;;;;361644;145;864919;-59
2021/12/21 01:53:57;;;;;;;4.65;1.66;;;;;;;;;;361423;145;861661;-60
2021/12/21 01:54:58;;;;;;;2.15;1.61;;;;;;;;;;364144;146;863085;-59
2021/12/21 01:56:01;;;;;;;4.79;1.62;;;;;;;;;;362683;145;857117;-61
2021/12/21 01:57:04;;;;;;;1.88;1.51;;;;;;;;;;361635;145;864178;-62
2021/12/21 01:58:05;;;;;;;2.90;2.21;;;;;;;;;;361857;146;860363;-62
2021/12/21 01:59:07;;;;;;;2.66;1.46;;;;;;;;;;363923;146;857088;-61
2021/12/21 02:00:09;;;;;;;2.53;1.64;;;;;;;;;;360907;145;863025;-62
2021/12/21 02:01:12;;;;;;;2.31;1.69;;;;;;;;;;361026;146;857149;-59
2021/12/21 02:02:14;;;;;;;2.87;1.82;;;;;;;;;;360982;148;857319;-61
2021/12/21 02:03:15;;;;;;;2.11;1.47;;;;;;;;;;363379;145;857222;-62
2021/12/21 02:04:17;;;;;;;3.48;1.76;;;;;;;;;;361922;145;857099;-60
2021/12/21 02:05:19;;;;;;;3.01;1.83;;;;;;;;;;361530;146;864882;-62
2021/12/21 02:06:23;;;;;;;1.70;1.45;;;;;;;;;;361362;146;857246;-62
2021/12/21 02:07:24;;;;;;;2.57;1.53;;;;;;;;;;361811;145;857277;-60
2021/12/21 02:08:26;;;;;;;1.66;1.55;;;;;;;;;;362233;146;858678;-60
2021/12/21 02:09:37;;;;;;;2.20;1.64;;;;;;;;;;363839;146;864433;-60
2021/12/21 02:10:31;;;;;;;2.54;1.92;;;;;;;;;;361578;145;864897;-59
2021/12/21 02:11:33;;;;;;;3.83;1.36;;;;;;;;;;361271;145;866615;-60
2021/12/21 02:12:34;;;;;;;1.43;1.24;;;;;;;;;;362780;146;865243;-60
2021/12/21 02:13:37;;;;;;;2.23;1.24;;;;;;;;;;362407;145;865937;-60
2021/12/21 02:14:39;;;;;;;2.11;1.57;;;;;;;;;;361542;146;864795;-62
2021/12/21 02:15:41;;;;;;;3.27;1.59;;;;;;;;;;361024;146;859449;-63
2021/12/21 02:17:00;;;;;;;2.05;1.80;;;;;;;;;;361507;145;857309;-61
2021/12/21 02:19:03;;;;;;;2.67;1.84;;;;;;;;;;362630;146;857318;-60
2021/12/21 02:20:10;;;;;;;2.12;1.58;;;;;;;;;;361558;146;859051;-60
2021/12/21 02:21:21;;;;;;;1.96;1.55;;;;;;;;;;362004;145;857315;-60
2021/12/21 02:22:15;;;;;;;3.93;2.29;;;;;;;;;;361057;146;858273;-60
2021/12/21 02:23:23;;;;;;;2.66;1.93;;;;;;;;;;362266;146;857841;-60
2021/12/21 02:24:26;;;;;;;2.68;1.52;;;;;;;;;;360331;146;859022;-60
2021/12/21 02:27:54;;;;;;;1.98;1.43;;;;;;;;;;361658;146;859125;-60
2021/12/21 02:29:09;;;;;;;2.64;1.76;;;;;;;;;;360348;145;857270;-60
2021/12/21 02:29:49;;;;;;;2.41;1.78;;;;;;;;;;358425;148;857239;-60
2021/12/21 02:30:54;;;;;;;2.60;1.81;;;;;;;;;;361093;146;857618;-60
2021/12/21 02:31:54;;;;;;;2.60;1.87;;;;;;;;;;362450;145;866947;-60
2021/12/21 02:32:56;;;;;;;1.56;1.30;;;;;;;;;;363569;145;857435;-60
2021/12/21 02:33:58;;;;;;;4.89;1.82;;;;;;;;;;362221;146;864814;-60
2021/12/21 02:34:59;;;;;;;2.55;2.12;;;;;;;;;;363580;146;864162;-60
2021/12/21 02:36:01;;;;;;;2.40;1.86;;;;;;;;;;361430;145;864640;-60
2021/12/21 02:37:02;;;;;;;3.04;2.21;;;;;;;;;;361039;149;866655;-60
2021/12/21 02:38:04;;;;;;;1.41;1.31;;;;;;;;;;361886;146;865097;-62
2021/12/21 02:39:06;;;;;;;2.31;2.11;;;;;;;;;;361153;145;857296;-60
2021/12/21 02:40:08;;;;;;;1.83;1.53;;;;;;;;;;360963;145;864448;-60
2021/12/21 02:41:10;;;;;;;2.69;1.36;;;;;;;;;;361089;149;857145;-60
2021/12/21 02:42:11;;;;;;;1.86;1.36;;;;;;;;;;361045;146;858386;-60
2021/12/21 02:43:13;;;;;;;2.26;1.63;;;;;;;;;;362427;145;864927;-63
2021/12/21 02:44:15;;;;;;;2.48;1.71;;;;;;;;;;361257;146;864945;-63
2021/12/21 02:45:16;;;;;;;2.29;1.53;;;;;;;;;;363225;146;857461;-60
2021/12/21 02:46:18;;;;;;;3.76;2.17;;;;;;;;;;361833;145;865949;-60
2021/12/21 02:47:20;;;;;;;2.05;1.85;;;;;;;;;;357358;147;858635;-60
2021/12/21 02:48:21;;;;;;;2.11;1.67;;;;;;;;;;358247;148;866177;-60
2021/12/21 02:49:23;;;;;;;2.06;1.54;;;;;;;;;;358787;148;857403;-60
2021/12/21 02:50:25;;;;;;;2.54;1.47;;;;;;;;;;357415;147;857317;-61
2021/12/21 02:51:27;;;;;;;2.61;1.56;;;;;;;;;;357846;148;857162;-61
2021/12/21 02:52:28;;;;;;;2.67;1.59;;;;;;;;;;359373;148;866361;-61
2021/12/21 02:53:30;;;;;;;2.69;1.43;;;;;;;;;;356876;146;861152;-60
2021/12/21 02:54:31;;;;;;;2.31;1.58;;;;;;;;;;357270;147;860969;-61
2021/12/21 02:55:33;;;;;;;2.38;1.32;;;;;;;;;;360255;148;865028;-61
2021/12/21 02:56:34;;;;;;;2.78;1.64;;;;;;;;;;356341;148;866083;-60
2021/12/21 02:57:36;;;;;;;2.91;2.48;;;;;;;;;;360060;147;865461;-61
2021/12/21 02:58:38;;;;;;;1.63;1.43;;;;;;;;;;356929;148;866141;-61
2021/12/21 02:59:39;;;;;;;4.71;1.73;;;;;;;;;;358402;146;857270;-61
2021/12/21 03:00:43;;;;;;;3.38;2.07;;;;;;;;;;356894;146;864747;-61
2021/12/21 03:01:44;;;;;;;2.96;1.81;;;;;;;;;;358728;148;864775;-61
2021/12/21 03:02:46;;;;;;;2.13;1.47;;;;;;;;;;357338;148;860160;-61
2021/12/21 03:03:47;;;;;;;2.61;1.47;;;;;;;;;;356701;148;864954;-61
2021/12/21 03:04:50;;;;;;;2.85;1.81;;;;;;;;;;357488;146;862500;-61
2021/12/21 03:05:55;;;;;;;2.14;1.52;;;;;;;;;;357402;148;864655;-61
2021/12/21 03:08:15;;;;;;;2.58;1.59;;;;;;;;;;357876;146;864975;-61
2021/12/21 03:09:37;;;;;;;2.56;1.99;;;;;;;;;;359106;148;857727;-61
2021/12/21 03:10:22;;;;;;;3.28;2.36;;;;;;;;;;356171;148;860155;-60
2021/12/21 03:11:36;;;;;;;1.78;1.29;;;;;;;;;;357359;146;857049;-61
2021/12/21 03:14:47;;;;;;;5.74;3.21;;;;;;;;;;358312;148;864754;-61
2021/12/21 03:15:48;;;;;;;4.56;2.59;;;;;;;;;;357459;148;857841;-61
2021/12/21 03:16:50;;;;;;;4.75;2.69;;;;;;;;;;361494;148;865812;-61
2021/12/21 03:17:52;;;;;;;3.72;2.45;;;;;;;;;;357805;148;865530;-61
2021/12/21 03:18:56;;;;;;;2.53;1.78;;;;;;;;;;357793;147;863813;-60
2021/12/21 03:19:57;;;;;;;2.41;1.89;;;;;;;;;;361146;148;861391;-61
2021/12/21 03:20:58;;;;;;;1.95;1.63;;;;;;;;;;358223;148;858759;-59
2021/12/21 03:22:00;;;;;;;3.54;2.01;;;;;;;;;;359038;146;858580;-60
2021/12/21 03:23:02;;;;;;;3.09;1.88;;;;;;;;;;357421;148;864740;-61
2021/12/21 03:24:04;;;;;;;2.44;1.91;;;;;;;;;;360891;148;864608;-61
2021/12/21 03:25:06;;;;;;;3.77;2.23;;;;;;;;;;357737;148;860082;-60
2021/12/21 03:26:08;;;;;;;3.74;1.95;;;;;;;;;;359204;146;858462;-60
2021/12/21 03:27:09;;;;;;;3.48;2.02;;;;;;;;;;358438;148;859952;-61
2021/12/21 03:28:11;;;;;;;1.75;1.64;;;;;;;;;;356870;146;864564;-61
2021/12/21 03:29:12;;;;;;;2.49;1.52;;;;;;;;;;357811;146;864981;-61
2021/12/21 03:30:15;;;;;;;2.37;1.51;;;;;;;;;;359624;148;865290;-61
2021/12/21 03:31:17;;;;;;;4.10;2.09;;;;;;;;;;359515;148;858968;-60
2021/12/21 03:32:18;;;;;;;3.57;1.82;;;;;;;;;;351098;149;858542;-61
2021/12/21 03:33:20;;;;;;;3.71;1.63;;;;;;;;;;350448;148;858697;-61
2021/12/21 03:34:21;;;;;;;2.64;1.80;;;;;;;;;;356978;148;865593;-61
2021/12/21 03:35:23;;;;;;;3.11;1.74;;;;;;;;;;357218;149;857258;-61
2021/12/21 03:36:25;;;;;;;2.11;1.64;;;;;;;;;;356919;146;864685;-61
2021/12/21 03:37:26;;;;;;;1.71;1.46;;;;;;;;;;357802;148;864874;-61
2021/12/21 03:38:28;;;;;;;3.29;2.40;;;;;;;;;;357727;148;861848;-61
2021/12/21 03:39:29;;;;;;;3.58;2.39;;;;;;;;;;356450;148;866574;-60
2021/12/21 03:40:33;;;;;;;4.75;1.95;;;;;;;;;;358738;146;865493;-61
2021/12/21 03:41:38;;;;;;;2.56;1.76;;;;;;;;;;356290;148;862561;-60
2021/12/21 03:42:40;;;;;;;4.10;1.68;;;;;;;;;;358328;146;857362;-60
2021/12/21 03:43:41;;;;;;;4.11;2.56;;;;;;;;;;358125;147;857750;-60
2021/12/21 03:44:43;;;;;;;3.03;1.90;;;;;;;;;;356508;148;864879;-60
2021/12/21 03:46:00;;;;;;;3.15;1.65;;;;;;;;;;356991;148;865463;-60
2021/12/21 03:46:55;;;;;;;7.39;1.96;;;;;;;;;;355378;147;857742;-61
2021/12/21 03:47:52;;;;;;;4.21;2.31;;;;;;;;;;358976;148;866458;-60
2021/12/21 03:48:53;;;;;;;3.04;2.11;;;;;;;;;;355978;148;859022;-60
2021/12/21 03:49:59;;;;;;;3.02;2.19;;;;;;;;;;358991;149;866030;-60
2021/12/21 03:50:58;;;;;;;3.97;2.04;;;;;;;;;;357207;149;863926;-60
2021/12/21 03:52:02;;;;;;;3.06;2.27;;;;;;;;;;359310;149;857157;-61
2021/12/21 03:53:03;;;;;;;3.30;1.91;;;;;;;;;;357981;149;865560;-62
2021/12/21 03:54:05;;;;;;;2.54;1.83;;;;;;;;;;358338;148;856876;-60
2021/12/21 03:55:06;;;;;;;2.21;1.36;;;;;;;;;;350292;152;863608;-60
2021/12/21 03:56:28;;;;;;;3.51;1.98;;;;;;;;;;346422;153;864971;-60
2021/12/21 03:57:15;;;;;;;2.60;1.62;;;;;;;;;;347511;151;858544;-60
2021/12/21 03:58:16;;;;;;;5.74;2.38;;;;;;;;;;348453;151;857800;-60
2021/12/21 03:59:18;;;;;;;3.21;2.69;;;;;;;;;;349301;152;857216;-60
2021/12/21 04:00:22;;;;;;;4.04;2.99;;;;;;;;;;350397;152;867462;-59
2021/12/21 04:01:24;;;;;;;3.87;2.61;;;;;;;;;;344585;154;866987;-60
2021/12/21 04:02:26;;;;;;;2.79;1.95;;;;;;;;;;348809;151;858558;-60
2021/12/21 04:03:28;;;;;;;2.91;2.13;;;;;;;;;;351443;151;863320;-61
2021/12/21 04:04:29;;;;;;;2.99;1.80;;;;;;;;;;349354;151;857686;-61
2021/12/21 04:05:31;;;;;;;2.74;1.71;;;;;;;;;;350448;151;865490;-61
2021/12/21 04:06:32;;;;;;;4.51;1.91;;;;;;;;;;349463;153;865056;-60
2021/12/21 04:07:34;;;;;;;2.66;1.93;;;;;;;;;;350536;151;863020;-60
2021/12/21 04:08:37;;;;;;;2.45;1.92;;;;;;;;;;350477;151;860929;-61
2021/12/21 04:09:38;;;;;;;2.21;1.75;;;;;;;;;;349877;151;861727;-61
2021/12/21 04:10:40;;;;;;;2.44;1.70;;;;;;;;;;349989;151;864980;-61
2021/12/21 04:11:41;;;;;;;1.73;1.55;;;;;;;;;;349036;151;866102;-60
2021/12/21 04:12:43;;;;;;;2.26;1.90;;;;;;;;;;348241;151;865409;-60
2021/12/21 04:13:45;;;;;;;3.35;1.51;;;;;;;;;;348564;153;864945;-60
2021/12/21 04:14:47;;;;;;;4.26;1.69;;;;;;;;;;349432;151;864623;-60
2021/12/21 04:15:52;;;;;;;1.96;1.56;;;;;;;;;;348858;150;864790;-60
2021/12/21 04:16:52;;;;;;;1.98;1.58;;;;;;;;;;349242;153;858198;-61
2021/12/21 04:17:54;;;;;;;3.17;1.71;;;;;;;;;;350846;151;866762;-60
2021/12/21 04:18:55;;;;;;;2.93;1.67;;;;;;;;;;350163;151;859830;-60
2021/12/21 04:19:57;;;;;;;2.12;1.64;;;;;;;;;;348752;151;865328;-60
2021/12/21 04:20:58;;;;;;;2.50;2.01;;;;;;;;;;348593;153;864459;-60
2021/12/21 04:22:00;;;;;;;2.41;1.54;;;;;;;;;;348097;153;863646;-59
2021/12/21 04:23:02;;;;;;;3.66;1.63;;;;;;;;;;350364;152;857933;-59
2021/12/21 04:24:04;;;;;;;1.77;1.37;;;;;;;;;;348271;153;864081;-62
2021/12/21 04:25:06;;;;;;;2.45;1.61;;;;;;;;;;348168;153;857941;-60
2021/12/21 04:26:08;;;;;;;3.16;1.98;;;;;;;;;;348740;151;860327;-60
2021/12/21 04:27:10;;;;;;;2.63;1.88;;;;;;;;;;345274;155;858903;-60
2021/12/21 04:28:11;;;;;;;3.92;1.70;;;;;;;;;;346469;155;859114;-60
2021/12/21 04:29:13;;;;;;;2.81;1.75;;;;;;;;;;345602;155;864609;-61
2021/12/21 04:30:17;;;;;;;3.01;1.94;;;;;;;;;;346087;153;864547;-61
2021/12/21 04:31:18;;;;;;;2.33;1.51;;;;;;;;;;346202;155;860383;-61
2021/12/21 04:32:20;;;;;;;3.82;2.15;;;;;;;;;;345841;155;857341;-61
2021/12/21 04:33:21;;;;;;;2.29;1.64;;;;;;;;;;346493;155;865606;-61
2021/12/21 04:34:23;;;;;;;2.28;1.69;;;;;;;;;;345831;155;856818;-60
2021/12/21 04:35:24;;;;;;;2.55;1.69;;;;;;;;;;352756;152;863905;-61
2021/12/21 04:36:26;;;;;;;2.09;1.63;;;;;;;;;;344566;153;865978;-60
2021/12/21 04:37:28;;;;;;;2.79;1.70;;;;;;;;;;353085;151;857567;-62
2021/12/21 04:38:34;;;;;;;2.42;1.64;;;;;;;;;;342903;156;864507;-60
2021/12/21 04:40:45;;;;;;;2.43;1.71;;;;;;;;;;344040;154;858970;-61
2021/12/21 04:41:44;;;;;;;4.38;1.71;;;;;;;;;;343984;155;864549;-61
2021/12/21 04:42:46;;;;;;;4.23;1.97;;;;;;;;;;347789;154;859232;-60
2021/12/21 04:43:47;;;;;;;3.24;2.06;;;;;;;;;;345874;152;857603;-59
2021/12/21 04:44:49;;;;;;;2.24;1.66;;;;;;;;;;346230;152;864642;-59
2021/12/21 04:45:50;;;;;;;2.98;1.79;;;;;;;;;;344732;155;859677;-60
2021/12/21 04:46:52;;;;;;;3.21;2.01;;;;;;;;;;350666;151;862980;-62
2021/12/21 04:47:54;;;;;;;2.07;1.59;;;;;;;;;;351165;151;866371;-60
2021/12/21 04:48:55;;;;;;;2.18;1.87;;;;;;;;;;350546;152;859802;-60
2021/12/21 04:49:57;;;;;;;3.84;1.91;;;;;;;;;;350205;152;865529;-61
2021/12/21 04:50:58;;;;;;;1.87;1.54;;;;;;;;;;347012;151;865643;-61
2021/12/21 04:52:00;;;;;;;2.17;1.72;;;;;;;;;;351312;152;865301;-63
2021/12/21 04:53:02;;;;;;;2.88;1.77;;;;;;;;;;353219;150;863912;-62
2021/12/21 04:54:03;;;;;;;1.90;1.46;;;;;;;;;;351336;150;863946;-62
2021/12/21 04:55:05;;;;;;;6.49;1.89;;;;;;;;;;352856;151;860845;-61
2021/12/21 04:56:07;;;;;;;2.57;1.68;;;;;;;;;;349269;152;864729;-63
2021/12/21 04:57:09;;;;;;;2.68;1.82;;;;;;;;;;349760;151;857138;-61
2021/12/21 04:58:10;;;;;;;4.01;1.57;;;;;;;;;;349828;151;865786;-64
2021/12/21 04:59:12;;;;;;;4.96;1.66;;;;;;;;;;350835;150;863811;-61
2021/12/21 05:00:14;;;;;;;3.24;1.64;;;;;;;;;;349419;152;865756;-63
2021/12/21 05:01:16;;;;;;;1.43;1.19;;;;;;;;;;351768;150;859252;-60
2021/12/21 05:02:18;;;;;;;1.72;1.46;;;;;;;;;;350505;152;857132;-61
2021/12/21 05:03:19;;;;;;;1.64;1.41;;;;;;;;;;348364;152;864882;-60
2021/12/21 05:04:21;;;;;;;2.04;1.46;;;;;;;;;;349867;150;865017;-61
2021/12/21 05:05:22;;;;;;;1.82;1.36;;;;;;;;;;351289;151;860814;-60
2021/12/21 05:06:25;;;;;;;3.99;1.63;;;;;;;;;;347894;151;867430;-60
2021/12/21 05:07:30;;;;;;;1.72;1.47;;;;;;;;;;353704;149;858756;-61
2021/12/21 05:08:35;;;;;;;2.61;1.33;;;;;;;;;;353381;148;857330;-60
2021/12/21 05:09:42;;;;;;;2.09;1.42;;;;;;;;;;353827;149;856087;-61
2021/12/21 05:10:50;;;;;;;1.89;1.38;;;;;;;;;;354046;149;857615;-60
2021/12/21 05:11:50;;;;;;;2.46;1.67;;;;;;;;;;354123;149;857250;-61
2021/12/21 05:12:52;;;;;;;1.81;1.31;;;;;;;;;;353854;149;857296;-60
2021/12/21 05:13:53;;;;;;;1.79;1.48;;;;;;;;;;353727;149;856470;-61
2021/12/21 05:14:55;;;;;;;1.79;1.29;;;;;;;;;;354256;148;863923;-60
2021/12/21 05:15:57;;;;;;;1.31;1.17;;;;;;;;;;353477;149;865503;-60
2021/12/21 05:16:58;;;;;;;1.83;1.28;;;;;;;;;;353641;152;858826;-60
2021/12/21 05:18:00;;;;;;;1.74;1.14;;;;;;;;;;353406;149;863699;-60
2021/12/21 05:19:02;;;;;;;2.67;1.74;;;;;;;;;;356592;148;864452;-60
2021/12/21 05:20:04;;;;;;;2.61;1.39;;;;;;;;;;349160;152;864074;-59
2021/12/21 05:21:05;;;;;;;2.30;1.21;;;;;;;;;;351248;151;863828;-59
2021/12/21 05:22:07;;;;;;;2.06;1.53;;;;;;;;;;348214;150;858304;-60
2021/12/21 05:23:09;;;;;;;2.45;1.50;;;;;;;;;;347509;152;857186;-58
2021/12/21 05:24:10;;;;;;;2.19;1.43;;;;;;;;;;351795;152;864154;-59
2021/12/21 05:25:12;;;;;;;2.21;1.51;;;;;;;;;;351194;151;863915;-59
2021/12/21 05:26:14;;;;;;;3.23;1.98;;;;;;;;;;349235;151;861442;-59
2021/12/21 05:27:15;;;;;;;2.88;1.99;;;;;;;;;;353601;152;857779;-59
2021/12/21 05:28:17;;;;;;;3.28;1.74;;;;;;;;;;352179;152;864410;-60
2021/12/21 05:29:20;;;;;;;2.79;1.86;;;;;;;;;;350212;151;864588;-59
2021/12/21 05:30:27;;;;;;;2.24;1.84;;;;;;;;;;355216;149;864084;-60
2021/12/21 05:31:25;;;;;;;2.28;1.72;;;;;;;;;;353707;149;857217;-60
2021/12/21 05:32:27;;;;;;;2.66;1.81;;;;;;;;;;351388;151;858757;-59
2021/12/21 05:33:29;;;;;;;3.19;1.82;;;;;;;;;;350505;150;863410;-61
2021/12/21 05:34:30;;;;;;;2.22;1.51;;;;;;;;;;351423;150;864424;-61
2021/12/21 05:35:33;;;;;;;1.81;1.59;;;;;;;;;;351544;150;856104;-59
2021/12/21 05:36:34;;;;;;;2.81;1.70;;;;;;;;;;349562;151;864966;-61
2021/12/21 05:37:38;;;;;;;2.56;2.07;;;;;;;;;;352538;151;855918;-59
2021/12/21 05:38:46;;;;;;;4.13;1.72;;;;;;;;;;351477;151;863479;-58
2021/12/21 05:40:32;;;;;;;2.41;1.49;;;;;;;;;;348499;149;865696;-58
2021/12/21 05:40:47;;;;;;;1.79;1.31;;;;;;;;;;342696;153;866437;-59
2021/12/21 05:41:51;;;;;;;2.02;1.47;;;;;;;;;;353086;151;865240;-59
2021/12/21 05:42:52;;;;;;;2.69;1.38;;;;;;;;;;351439;149;856149;-59
2021/12/21 05:43:54;;;;;;;1.70;1.32;;;;;;;;;;352948;151;857211;-59
2021/12/21 05:44:56;;;;;;;1.96;1.24;;;;;;;;;;352259;151;865885;-59
2021/12/21 05:45:57;;;;;;;2.94;1.50;;;;;;;;;;351755;151;857513;-58
2021/12/21 05:46:59;;;;;;;1.32;1.21;;;;;;;;;;351914;149;863480;-59
2021/12/21 05:48:00;;;;;;;2.56;1.70;;;;;;;;;;351268;149;858755;-58
2021/12/21 05:49:02;;;;;;;2.20;1.58;;;;;;;;;;362113;146;863889;-59
2021/12/21 05:50:05;;;;;;;3.45;1.26;;;;;;;;;;361092;145;864100;-60
2021/12/21 05:51:06;;;;;;;2.03;1.49;;;;;;;;;;361574;145;864254;-59
2021/12/21 05:52:08;;;;;;;1.91;1.34;;;;;;;;;;360980;149;863407;-60
2021/12/21 05:53:09;;;;;;;2.37;1.51;;;;;;;;;;361145;146;864973;-60
2021/12/21 05:54:12;;;;;;;2.21;1.37;;;;;;;;;;361629;145;864664;-60
2021/12/21 05:55:13;;;;;;;1.89;1.14;;;;;;;;;;361559;146;862295;-61
2021/12/21 05:56:16;;;;;;;2.42;1.27;;;;;;;;;;362125;146;856874;-61
2021/12/21 05:57:18;;;;;;;4.11;1.54;;;;;;;;;;361082;146;857449;-58
2021/12/21 05:58:19;;;;;;;2.46;1.38;;;;;;;;;;363266;145;864861;-58
2021/12/21 05:59:21;;;;;;;1.79;1.16;;;;;;;;;;361221;145;864573;-58
2021/12/21 06:00:24;;;;;;;2.03;1.24;;;;;;;;;;361151;146;864923;-58
2021/12/21 06:01:26;;;;;;;3.15;1.39;;;;;;;;;;362371;145;857408;-59
2021/12/21 06:02:28;;;;;;;2.29;1.65;;;;;;;;;;364591;146;856422;-59
2021/12/21 06:03:30;;;;;;;2.64;1.41;;;;;;;;;;361967;146;865586;-59
2021/12/21 06:04:31;;;;;;;1.51;1.18;;;;;;;;;;361815;146;864607;-61
2021/12/21 06:05:33;;;;;;;1.55;1.34;;;;;;;;;;362724;145;864968;-58
2021/12/21 06:06:35;;;;;;;4.39;1.61;;;;;;;;;;361997;146;864819;-59
2021/12/21 06:07:36;;;;;;;2.98;1.85;;;;;;;;;;361709;145;864798;-58
2021/12/21 06:08:38;;;;;;;2.34;1.79;;;;;;;;;;361624;145;857117;-59
2021/12/21 06:09:42;;;;;;;4.10;1.93;;;;;;;;;;362470;145;866721;-59
2021/12/21 06:10:45;;;;;;;7.05;2.28;;;;;;;;;;362849;146;856122;-59
2021/12/21 06:12:04;;;;;;;2.86;2.06;;;;;;;;;;357712;149;857844;-58
2021/12/21 06:12:58;;;;;;;2.68;1.86;;;;;;;;;;355123;148;866283;-59
2021/12/21 06:26:31;;;;;;;2.20;1.39;;;;;;;;;;362897;145;856999;-60
2021/12/21 06:27:33;;;;;;;1.39;1.29;;;;;;;;;;361743;146;858644;-61
2021/12/21 06:28:35;;;;;;;3.53;1.29;;;;;;;;;;365846;146;857093;-59
2021/12/21 06:29:36;;;;;;;2.31;1.45;;;;;;;;;;366437;146;857625;-59
2021/12/21 06:30:38;;;;;;;1.61;1.20;;;;;;;;;;362094;145;864512;-59
2021/12/21 06:31:40;;;;;;;2.13;1.37;;;;;;;;;;364754;146;857562;-58
2021/12/21 06:32:42;;;;;;;2.49;1.32;;;;;;;;;;361145;149;858721;-59
2021/12/21 06:33:43;;;;;;;1.37;1.18;;;;;;;;;;361797;146;864910;-58
2021/12/21 06:34:45;;;;;;;1.31;1.16;;;;;;;;;;360732;145;865031;-58
2021/12/21 06:35:47;;;;;;;2.29;1.21;;;;;;;;;;363791;146;866821;-62
2021/12/21 06:36:48;;;;;;;1.37;1.27;;;;;;;;;;362720;146;865166;-59
2021/12/21 06:37:50;;;;;;;6.29;1.80;;;;;;;;;;363140;145;859768;-59
2021/12/21 06:38:53;;;;;;;1.22;1.12;;;;;;;;;;362527;145;864966;-61
2021/12/21 06:39:55;;;;;;;3.08;1.33;;;;;;;;;;361020;149;864040;-60
2021/12/21 06:40:57;;;;;;;2.25;1.48;;;;;;;;;;362445;145;857297;-57
2021/12/21 06:41:59;;;;;;;2.20;1.25;;;;;;;;;;362904;145;856104;-59
2021/12/21 06:43:02;;;;;;;2.63;1.40;;;;;;;;;;361071;149;855998;-58
2021/12/21 06:44:04;;;;;;;2.06;1.47;;;;;;;;;;361648;146;856806;-59
2021/12/21 06:45:13;;;;;;;3.35;1.23;;;;;;;;;;361270;146;857814;-59
2021/12/21 06:46:29;;;;;;;4.99;1.54;;;;;;;;;;364519;146;856993;-58
2021/12/21 06:52:19;;;;;;;2.43;1.39;;;;;;;;;;359062;147;856840;-59
2021/12/21 06:53:21;;;;;;;2.69;1.34;;;;;;;;;;360882;147;865888;-60
2021/12/21 06:54:23;;;;;;;1.29;1.07;;;;;;;;;;360894;149;864941;-59
2021/12/21 06:55:24;;;;;;;1.51;0.95;;;;;;;;;;357564;149;864726;-59
2021/12/21 06:56:26;;;;;;;1.99;1.35;;;;;;;;;;359668;147;866818;-59
2021/12/21 06:57:27;;;;;;;2.03;1.33;;;;;;;;;;359933;149;864344;-59